sensor_id;sensor_type;location;lat;lon;timestamp;pressure;altitude;pressure_sealevel;temperature;humidity
65546;BME280;52177;55.968;37.498;2022-10-16T00:00:04;100921.16;;;1.63;77.24
65546;BME280;52177;55.968;37.498;2022-10-16T00:00:35;100918.53;;;1.63;77.10
65546;BME280;52177;55.968;37.498;2022-10-16T00:01:10;100918.59;;;1.61;76.90
65546;BME280;52177;55.968;37.498;2022-10-16T00:01:41;100923.84;;;1.61;76.95
65546;BME280;52177;55.968;37.498;2022-10-16T00:02:11;100917.75;;;1.61;77.08
65546;BME280;52177;55.968;37.498;2022-10-16T00:02:41;100919.56;;;1.60;77.05
65546;BME280;52177;55.968;37.498;2022-10-16T00:03:12;100928.38;;;1.59;77.07
65546;BME280;52177;55.968;37.498;2022-10-16T00:03:42;100925.75;;;1.59;77.14
65546;BME280;52177;55.968;37.498;2022-10-16T00:04:13;100925.75;;;1.59;77.21
65546;BME280;52177;55.968;37.498;2022-10-16T00:04:43;100918.78;;;1.58;77.09
65546;BME280;52177;55.968;37.498;2022-10-16T00:05:13;100918.78;;;1.58;77.07
65546;BME280;52177;55.968;37.498;2022-10-16T00:05:44;100925.84;;;1.58;76.95
65546;BME280;52177;55.968;37.498;2022-10-16T00:06:15;100914.47;;;1.57;77.09
65546;BME280;52177;55.968;37.498;2022-10-16T00:06:45;100928.47;;;1.58;76.97
65546;BME280;52177;55.968;37.498;2022-10-16T00:07:15;100922.38;;;1.57;76.99
65546;BME280;52177;55.968;37.498;2022-10-16T00:07:46;100926.66;;;1.58;76.94
65546;BME280;52177;55.968;37.498;2022-10-16T00:08:16;100930.13;;;1.59;76.62
65546;BME280;52177;55.968;37.498;2022-10-16T00:08:46;100931.00;;;1.59;76.72
65546;BME280;52177;55.968;37.498;2022-10-16T00:09:17;100927.44;;;1.60;76.86
65546;BME280;52177;55.968;37.498;2022-10-16T00:09:47;100930.06;;;1.60;76.78
65546;BME280;52177;55.968;37.498;2022-10-16T00:10:17;100925.75;;;1.59;76.85
65546;BME280;52177;55.968;37.498;2022-10-16T00:10:47;100928.38;;;1.59;76.91
65546;BME280;52177;55.968;37.498;2022-10-16T00:11:19;100929.31;;;1.58;76.74
65546;BME280;52177;55.968;37.498;2022-10-16T00:11:49;100928.47;;;1.58;76.90
65546;BME280;52177;55.968;37.498;2022-10-16T00:12:20;100933.63;;;1.59;76.93
65546;BME280;52177;55.968;37.498;2022-10-16T00:12:50;100925.75;;;1.59;76.77
65546;BME280;52177;55.968;37.498;2022-10-16T00:13:21;100931.84;;;1.60;76.74
65546;BME280;52177;55.968;37.498;2022-10-16T00:13:51;100929.22;;;1.60;76.72
65546;BME280;52177;55.968;37.498;2022-10-16T00:14:24;100937.09;;;1.60;76.47
65546;BME280;52177;55.968;37.498;2022-10-16T00:14:54;100942.38;;;1.60;76.47
65546;BME280;52177;55.968;37.498;2022-10-16T00:15:24;100933.63;;;1.59;76.64
65546;BME280;52177;55.968;37.498;2022-10-16T00:15:55;100931.00;;;1.59;76.56
65546;BME280;52177;55.968;37.498;2022-10-16T00:16:26;100934.56;;;1.58;76.47
65546;BME280;52177;55.968;37.498;2022-10-16T00:16:56;100938.97;;;1.58;76.55
65546;BME280;52177;55.968;37.498;2022-10-16T00:17:27;100936.34;;;1.58;76.52
65546;BME280;52177;55.968;37.498;2022-10-16T00:17:57;100933.78;;;1.56;76.55
65546;BME280;52177;55.968;37.498;2022-10-16T00:18:27;100934.63;;;1.57;76.42
65546;BME280;52177;55.968;37.498;2022-10-16T00:18:58;100938.22;;;1.56;76.40
65546;BME280;52177;55.968;37.498;2022-10-16T00:19:28;100938.13;;;1.57;76.28
65546;BME280;52177;55.968;37.498;2022-10-16T00:19:58;100934.63;;;1.57;76.27
65546;BME280;52177;55.968;37.498;2022-10-16T00:20:29;100940.84;;;1.56;76.31
65546;BME280;52177;55.968;37.498;2022-10-16T00:21:34;100935.84;;;1.51;76.43
65546;BME280;52177;55.968;37.498;2022-10-16T00:22:04;100935.09;;;1.49;76.47
65546;BME280;52177;55.968;37.498;2022-10-16T00:22:34;100935.94;;;1.50;76.56
65546;BME280;52177;55.968;37.498;2022-10-16T00:23:05;100939.44;;;1.50;76.54
65546;BME280;52177;55.968;37.498;2022-10-16T00:23:35;100938.56;;;1.50;76.49
65546;BME280;52177;55.968;37.498;2022-10-16T00:24:07;100935.94;;;1.50;76.37
65546;BME280;52177;55.968;37.498;2022-10-16T00:24:41;100930.66;;;1.50;76.28
65546;BME280;52177;55.968;37.498;2022-10-16T00:25:11;100936.78;;;1.50;76.15
65546;BME280;52177;55.968;37.498;2022-10-16T00:25:41;100935.00;;;1.51;76.28
65546;BME280;52177;55.968;37.498;2022-10-16T00:26:13;100936.78;;;1.50;76.46
65546;BME280;52177;55.968;37.498;2022-10-16T00:26:43;100935.09;;;1.49;76.27
65546;BME280;52177;55.968;37.498;2022-10-16T00:27:14;100934.25;;;1.48;76.20
65546;BME280;52177;55.968;37.498;2022-10-16T00:27:44;100940.34;;;1.49;76.29
65546;BME280;52177;55.968;37.498;2022-10-16T00:28:14;100935.09;;;1.49;76.27
65546;BME280;52177;55.968;37.498;2022-10-16T00:28:45;100940.34;;;1.49;76.33
65546;BME280;52177;55.968;37.498;2022-10-16T00:29:16;100934.25;;;1.48;76.34
65546;BME280;52177;55.968;37.498;2022-10-16T00:29:49;100938.72;;;1.46;76.38
65546;BME280;52177;55.968;37.498;2022-10-16T00:30:20;100943.91;;;1.48;76.50
65546;BME280;52177;55.968;37.498;2022-10-16T00:30:50;100940.44;;;1.47;76.47
65546;BME280;52177;55.968;37.498;2022-10-16T00:31:21;100939.56;;;1.47;76.44
65546;BME280;52177;55.968;37.498;2022-10-16T00:31:52;100938.72;;;1.46;76.33
65546;BME280;52177;55.968;37.498;2022-10-16T00:32:22;100942.19;;;1.47;76.35
65546;BME280;52177;55.968;37.498;2022-10-16T00:32:52;100943.16;;;1.46;76.14
65546;BME280;52177;55.968;37.498;2022-10-16T00:33:22;100943.22;;;1.44;76.24
65546;BME280;52177;55.968;37.498;2022-10-16T00:33:53;100945.84;;;1.44;76.38
65546;BME280;52177;55.968;37.498;2022-10-16T00:34:23;100939.75;;;1.44;76.50
65546;BME280;52177;55.968;37.498;2022-10-16T00:34:53;100939.84;;;1.42;76.47
65546;BME280;52177;55.968;37.498;2022-10-16T00:35:26;100940.72;;;1.43;76.52
65546;BME280;52177;55.968;37.498;2022-10-16T00:35:58;100945.09;;;1.42;76.38
65546;BME280;52177;55.968;37.498;2022-10-16T00:36:28;100942.56;;;1.41;76.27
65546;BME280;52177;55.968;37.498;2022-10-16T00:36:59;100944.25;;;1.42;76.21
65546;BME280;52177;55.968;37.498;2022-10-16T00:37:29;100946.88;;;1.42;76.24
65546;BME280;52177;55.968;37.498;2022-10-16T00:37:59;100941.69;;;1.40;76.28
65546;BME280;52177;55.968;37.498;2022-10-16T00:38:29;100940.78;;;1.41;76.33
65546;BME280;52177;55.968;37.498;2022-10-16T00:39:00;100948.66;;;1.41;76.32
65546;BME280;52177;55.968;37.498;2022-10-16T00:39:30;100941.69;;;1.40;76.30
65546;BME280;52177;55.968;37.498;2022-10-16T00:40:01;100945.28;;;1.39;76.22
65546;BME280;52177;55.968;37.498;2022-10-16T00:40:31;100941.69;;;1.40;76.15
65546;BME280;52177;55.968;37.498;2022-10-16T00:41:01;100939.19;;;1.39;76.10
65546;BME280;52177;55.968;37.498;2022-10-16T00:41:32;100942.66;;;1.39;76.03
65546;BME280;52177;55.968;37.498;2022-10-16T00:42:02;100940.84;;;1.40;75.91
65546;BME280;52177;55.968;37.498;2022-10-16T00:42:33;100935.59;;;1.40;76.01
65546;BME280;52177;55.968;37.498;2022-10-16T00:43:08;100949.50;;;1.42;75.98
65546;BME280;52177;55.968;37.498;2022-10-16T00:43:41;100945.09;;;1.42;75.99
65546;BME280;52177;55.968;37.498;2022-10-16T00:45:00;100945.19;;;1.41;75.82
65546;BME280;52177;55.968;37.498;2022-10-16T00:45:30;100940.78;;;1.41;75.83
65546;BME280;52177;55.968;37.498;2022-10-16T00:46:01;100944.25;;;1.42;75.87
65546;BME280;52177;55.968;37.498;2022-10-16T00:46:36;100944.31;;;1.40;76.10
65546;BME280;52177;55.968;37.498;2022-10-16T00:47:11;100944.44;;;1.39;76.14
65546;BME280;52177;55.968;37.498;2022-10-16T00:47:43;100951.56;;;1.37;76.21
65546;BME280;52177;55.968;37.498;2022-10-16T00:48:15;100949.94;;;1.34;76.35
65546;BME280;52177;55.968;37.498;2022-10-16T00:48:55;100943.84;;;1.34;76.43
65546;BME280;52177;55.968;37.498;2022-10-16T00:49:27;100944.69;;;1.34;76.28
65546;BME280;52177;55.968;37.498;2022-10-16T00:50:39;100945.47;;;1.36;76.45
65546;BME280;52177;55.968;37.498;2022-10-16T00:50:50;100946.28;;;1.37;76.29
65546;BME280;52177;55.968;37.498;2022-10-16T00:51:21;100942.84;;;1.36;76.21
65546;BME280;52177;55.968;37.498;2022-10-16T00:51:53;100940.09;;;1.38;76.02
65546;BME280;52177;55.968;37.498;2022-10-16T00:52:23;100946.28;;;1.37;76.01
65546;BME280;52177;55.968;37.498;2022-10-16T00:52:54;100947.97;;;1.38;76.01
65546;BME280;52177;55.968;37.498;2022-10-16T00:53:25;100949.75;;;1.37;75.97
65546;BME280;52177;55.968;37.498;2022-10-16T00:53:55;100948.94;;;1.37;75.96
65546;BME280;52177;55.968;37.498;2022-10-16T00:54:27;100947.22;;;1.36;76.08
65546;BME280;52177;55.968;37.498;2022-10-16T00:54:57;100949.00;;;1.35;75.96
65546;BME280;52177;55.968;37.498;2022-10-16T00:55:28;100945.53;;;1.35;76.04
65546;BME280;52177;55.968;37.498;2022-10-16T00:56:00;100953.50;;;1.33;75.94
65546;BME280;52177;55.968;37.498;2022-10-16T00:56:31;100945.59;;;1.33;75.88
65546;BME280;52177;55.968;37.498;2022-10-16T00:57:03;100946.47;;;1.34;75.89
65546;BME280;52177;55.968;37.498;2022-10-16T00:57:34;100956.13;;;1.33;75.97
65546;BME280;52177;55.968;37.498;2022-10-16T00:58:04;100949.19;;;1.32;76.04
65546;BME280;52177;55.968;37.498;2022-10-16T00:58:34;100948.34;;;1.32;75.99
65546;BME280;52177;55.968;37.498;2022-10-16T00:59:14;100944.78;;;1.33;76.03
65546;BME280;52177;55.968;37.498;2022-10-16T00:59:45;100947.50;;;1.31;76.08
65546;BME280;52177;55.968;37.498;2022-10-16T01:00:18;100952.84;;;1.30;76.00
65546;BME280;52177;55.968;37.498;2022-10-16T01:00:48;100949.44;;;1.27;75.96
65546;BME280;52177;55.968;37.498;2022-10-16T01:01:18;100942.50;;;1.26;76.09
65546;BME280;52177;55.968;37.498;2022-10-16T01:01:49;100950.38;;;1.26;76.20
65546;BME280;52177;55.968;37.498;2022-10-16T01:02:19;100944.38;;;1.24;76.26
65546;BME280;52177;55.968;37.498;2022-10-16T01:02:53;100952.25;;;1.24;76.04
65546;BME280;52177;55.968;37.498;2022-10-16T01:03:29;100953.16;;;1.23;76.21
65546;BME280;52177;55.968;37.498;2022-10-16T01:03:59;100948.84;;;1.22;76.26
65546;BME280;52177;55.968;37.498;2022-10-16T01:04:32;100947.16;;;1.21;76.40
65546;BME280;52177;55.968;37.498;2022-10-16T01:05:03;100955.97;;;1.20;76.49
65546;BME280;52177;55.968;37.498;2022-10-16T01:05:39;100953.41;;;1.19;76.69
65546;BME280;52177;55.968;37.498;2022-10-16T01:06:23;100952.59;;;1.18;76.69
65546;BME280;52177;55.968;37.498;2022-10-16T01:07:56;100950.91;;;1.17;76.48
65546;BME280;52177;55.968;37.498;2022-10-16T01:08:34;100951.75;;;1.18;76.54
65546;BME280;52177;55.968;37.498;2022-10-16T01:09:10;100955.22;;;1.18;76.53
65546;BME280;52177;55.968;37.498;2022-10-16T01:09:51;100946.38;;;1.19;76.43
65546;BME280;52177;55.968;37.498;2022-10-16T01:10:59;100945.66;;;1.17;76.50
65546;BME280;52177;55.968;37.498;2022-10-16T01:12:15;100950.97;;;1.16;76.41
65546;BME280;52177;55.968;37.498;2022-10-16T01:13:27;100950.13;;;1.15;76.28
65546;BME280;52177;55.968;37.498;2022-10-16T01:14:06;100953.69;;;1.14;76.24
65546;BME280;52177;55.968;37.498;2022-10-16T01:14:45;100955.47;;;1.14;76.28
65546;BME280;52177;55.968;37.498;2022-10-16T01:15:18;100951.91;;;1.15;76.17
65546;BME280;52177;55.968;37.498;2022-10-16T01:15:55;100948.53;;;1.13;76.42
65546;BME280;52177;55.968;37.498;2022-10-16T01:16:37;100950.28;;;1.12;76.35
65546;BME280;52177;55.968;37.498;2022-10-16T01:17:12;100957.31;;;1.12;76.41
65546;BME280;52177;55.968;37.498;2022-10-16T01:17:44;100954.81;;;1.10;76.51
65546;BME280;52177;55.968;37.498;2022-10-16T01:18:51;100957.50;;;1.09;76.71
65546;BME280;52177;55.968;37.498;2022-10-16T01:20:20;100961.97;;;1.07;76.80
65546;BME280;52177;55.968;37.498;2022-10-16T01:20:54;100953.28;;;1.06;76.60
65546;BME280;52177;55.968;37.498;2022-10-16T01:21:29;100966.41;;;1.06;76.64
65546;BME280;52177;55.968;37.498;2022-10-16T01:22:01;100962.06;;;1.05;76.54
65546;BME280;52177;55.968;37.498;2022-10-16T01:22:37;100967.31;;;1.05;76.69
65546;BME280;52177;55.968;37.498;2022-10-16T01:23:17;100963.06;;;1.02;76.65
65546;BME280;52177;55.968;37.498;2022-10-16T01:24:40;100965.69;;;1.02;76.81
65546;BME280;52177;55.968;37.498;2022-10-16T01:25:19;100961.28;;;1.03;76.68
65546;BME280;52177;55.968;37.498;2022-10-16T01:27:41;100959.44;;;1.05;76.48
65546;BME280;52177;55.968;37.498;2022-10-16T01:28:15;100960.38;;;1.04;76.52
65546;BME280;52177;55.968;37.498;2022-10-16T01:28:55;100959.44;;;1.05;76.20
65546;BME280;52177;55.968;37.498;2022-10-16T01:29:28;100965.44;;;1.07;76.22
65546;BME280;52177;55.968;37.498;2022-10-16T01:30:22;100961.16;;;1.06;76.01
65546;BME280;52177;55.968;37.498;2022-10-16T01:30:50;100965.56;;;1.05;76.08
65546;BME280;52177;55.968;37.498;2022-10-16T01:31:24;100966.47;;;1.04;75.94
65546;BME280;52177;55.968;37.498;2022-10-16T01:31:59;100963.00;;;1.04;76.00
65546;BME280;52177;55.968;37.498;2022-10-16T01:33:06;100962.16;;;1.03;76.01
65546;BME280;52177;55.968;37.498;2022-10-16T01:33:41;100958.66;;;1.03;76.09
65546;BME280;52177;55.968;37.498;2022-10-16T01:34:14;100963.00;;;1.04;76.14
65546;BME280;52177;55.968;37.498;2022-10-16T01:34:52;100963.00;;;1.04;76.16
65546;BME280;52177;55.968;37.498;2022-10-16T01:35:28;100969.16;;;1.03;76.00
65546;BME280;52177;55.968;37.498;2022-10-16T01:36:02;100965.63;;;1.04;76.01
65546;BME280;52177;55.968;37.498;2022-10-16T01:36:45;100968.25;;;1.04;75.95
65546;BME280;52177;55.968;37.498;2022-10-16T01:37:20;100967.31;;;1.05;75.94
65546;BME280;52177;55.968;37.498;2022-10-16T01:37:57;100977.81;;;1.05;75.90
65546;BME280;52177;55.968;37.498;2022-10-16T01:38:31;100968.19;;;1.05;75.87
65546;BME280;52177;55.968;37.498;2022-10-16T01:39:03;100967.31;;;1.05;75.87
65546;BME280;52177;55.968;37.498;2022-10-16T01:39:34;100969.94;;;1.05;76.01
65546;BME280;52177;55.968;37.498;2022-10-16T01:40:11;100963.84;;;1.04;75.88
65546;BME280;52177;55.968;37.498;2022-10-16T01:40:43;100965.63;;;1.04;75.75
65546;BME280;52177;55.968;37.498;2022-10-16T01:41:47;100969.94;;;1.05;75.90
65546;BME280;52177;55.968;37.498;2022-10-16T01:42:20;100962.06;;;1.05;75.88
65546;BME280;52177;55.968;37.498;2022-10-16T01:42:52;100965.56;;;1.05;75.83
65546;BME280;52177;55.968;37.498;2022-10-16T01:43:26;100966.47;;;1.04;75.69
65546;BME280;52177;55.968;37.498;2022-10-16T01:44:02;100968.25;;;1.04;75.84
65546;BME280;52177;55.968;37.498;2022-10-16T01:44:34;100970.94;;;1.02;75.91
65546;BME280;52177;55.968;37.498;2022-10-16T01:45:06;100964.03;;;1.01;75.93
65546;BME280;52177;55.968;37.498;2022-10-16T01:45:37;100979.78;;;1.01;75.94
65546;BME280;52177;55.968;37.498;2022-10-16T01:46:08;100965.69;;;1.02;75.81
65546;BME280;52177;55.968;37.498;2022-10-16T01:46:39;100964.88;;;1.02;75.77
65546;BME280;52177;55.968;37.498;2022-10-16T01:47:11;100971.78;;;1.03;75.82
65546;BME280;52177;55.968;37.498;2022-10-16T01:47:42;100964.88;;;1.02;75.76
65546;BME280;52177;55.968;37.498;2022-10-16T01:48:14;100973.50;;;1.04;75.81
65546;BME280;52177;55.968;37.498;2022-10-16T01:48:47;100969.16;;;1.03;75.79
65546;BME280;52177;55.968;37.498;2022-10-16T01:49:18;100979.66;;;1.03;75.75
65546;BME280;52177;55.968;37.498;2022-10-16T01:49:50;100970.03;;;1.03;75.85
65546;BME280;52177;55.968;37.498;2022-10-16T01:50:21;100966.66;;;1.01;75.64
65546;BME280;52177;55.968;37.498;2022-10-16T01:51:10;100967.50;;;1.02;75.69
65546;BME280;52177;55.968;37.498;2022-10-16T01:51:42;100976.38;;;0.99;75.85
65546;BME280;52177;55.968;37.498;2022-10-16T01:52:15;100973.00;;;0.97;76.02
65546;BME280;52177;55.968;37.498;2022-10-16T01:52:48;100975.69;;;0.96;75.85
65546;BME280;52177;55.968;37.498;2022-10-16T01:53:20;100974.00;;;0.95;75.88
65546;BME280;52177;55.968;37.498;2022-10-16T01:53:53;100973.16;;;0.94;76.04
65546;BME280;52177;55.968;37.498;2022-10-16T01:54:25;100975.78;;;0.94;75.98
65546;BME280;52177;55.968;37.498;2022-10-16T01:54:58;100976.63;;;0.95;75.94
65546;BME280;52177;55.968;37.498;2022-10-16T01:55:34;100973.06;;;0.96;75.95
65546;BME280;52177;55.968;37.498;2022-10-16T01:56:07;100973.94;;;0.96;75.80
65546;BME280;52177;55.968;37.498;2022-10-16T01:56:38;100967.81;;;0.96;75.82
65546;BME280;52177;55.968;37.498;2022-10-16T01:57:09;100978.31;;;0.96;75.88
65546;BME280;52177;55.968;37.498;2022-10-16T01:57:41;100978.31;;;0.96;75.92
65546;BME280;52177;55.968;37.498;2022-10-16T01:58:14;100972.22;;;0.95;75.80
65546;BME280;52177;55.968;37.498;2022-10-16T01:58:46;100970.53;;;0.94;75.82
65546;BME280;52177;55.968;37.498;2022-10-16T01:59:18;100972.22;;;0.95;75.76
65546;BME280;52177;55.968;37.498;2022-10-16T01:59:50;100970.44;;;0.96;75.98
65546;BME280;52177;55.968;37.498;2022-10-16T02:00:22;100973.94;;;0.96;75.73
65546;BME280;52177;55.968;37.498;2022-10-16T02:00:53;100968.69;;;0.96;75.63
65546;BME280;52177;55.968;37.498;2022-10-16T02:01:24;100973.94;;;0.96;75.73
65546;BME280;52177;55.968;37.498;2022-10-16T02:01:58;100973.94;;;0.96;75.70
65546;BME280;52177;55.968;37.498;2022-10-16T02:02:30;100968.69;;;0.96;75.78
65546;BME280;52177;55.968;37.498;2022-10-16T02:03:01;100974.00;;;0.95;75.75
65546;BME280;52177;55.968;37.498;2022-10-16T02:03:31;100967.91;;;0.94;75.77
65546;BME280;52177;55.968;37.498;2022-10-16T02:04:15;100974.94;;;0.94;75.94
65546;BME280;52177;55.968;37.498;2022-10-16T02:04:48;100966.22;;;0.93;76.12
65546;BME280;52177;55.968;37.498;2022-10-16T02:05:50;100973.31;;;0.91;76.04
65546;BME280;52177;55.968;37.498;2022-10-16T02:06:21;100961.13;;;0.90;76.11
65546;BME280;52177;55.968;37.498;2022-10-16T02:06:53;100966.44;;;0.89;76.15
65546;BME280;52177;55.968;37.498;2022-10-16T02:07:23;100975.28;;;0.88;76.16
65546;BME280;52177;55.968;37.498;2022-10-16T02:07:54;100973.56;;;0.87;76.14
65546;BME280;52177;55.968;37.498;2022-10-16T02:08:25;100974.56;;;0.84;76.29
65546;BME280;52177;55.968;37.498;2022-10-16T02:08:58;100972.06;;;0.82;76.43
65546;BME280;52177;55.968;37.498;2022-10-16T02:09:29;100973.84;;;0.82;76.44
65546;BME280;52177;55.968;37.498;2022-10-16T02:10:00;100973.91;;;0.80;76.47
65546;BME280;52177;55.968;37.498;2022-10-16T02:10:31;100969.56;;;0.79;76.48
65546;BME280;52177;55.968;37.498;2022-10-16T02:11:02;100977.44;;;0.79;76.45
65546;BME280;52177;55.968;37.498;2022-10-16T02:11:32;100972.19;;;0.79;76.55
65546;BME280;52177;55.968;37.498;2022-10-16T02:12:10;100974.81;;;0.79;76.44
65546;BME280;52177;55.968;37.498;2022-10-16T02:12:43;100974.09;;;0.77;76.44
65546;BME280;52177;55.968;37.498;2022-10-16T02:13:53;100965.50;;;0.74;76.55
65546;BME280;52177;55.968;37.498;2022-10-16T02:14:24;100972.53;;;0.73;76.62
65546;BME280;52177;55.968;37.498;2022-10-16T02:14:55;100973.47;;;0.72;76.64
65546;BME280;52177;55.968;37.498;2022-10-16T02:15:25;100972.63;;;0.72;76.83
65546;BME280;52177;55.968;37.498;2022-10-16T02:15:56;100974.41;;;0.71;76.85
65546;BME280;52177;55.968;37.498;2022-10-16T02:16:32;100976.19;;;0.71;76.86
65546;BME280;52177;55.968;37.498;2022-10-16T02:17:09;100971.78;;;0.71;76.92
65546;BME280;52177;55.968;37.498;2022-10-16T02:17:40;100971.78;;;0.71;76.80
65546;BME280;52177;55.968;37.498;2022-10-16T02:18:10;100968.31;;;0.71;76.96
65546;BME280;52177;55.968;37.498;2022-10-16T02:18:41;100980.50;;;0.72;76.85
65546;BME280;52177;55.968;37.498;2022-10-16T02:19:12;100967.38;;;0.72;76.92
65546;BME280;52177;55.968;37.498;2022-10-16T02:19:43;100976.09;;;0.72;76.64
65546;BME280;52177;55.968;37.498;2022-10-16T02:20:15;100977.03;;;0.71;76.66
65546;BME280;52177;55.968;37.498;2022-10-16T02:21:44;100967.38;;;0.72;76.68
65546;BME280;52177;55.968;37.498;2022-10-16T02:22:39;100975.25;;;0.72;76.90
65546;BME280;52177;55.968;37.498;2022-10-16T02:23:07;100973.56;;;0.71;76.76
65546;BME280;52177;55.968;37.498;2022-10-16T02:23:54;100976.19;;;0.71;76.70
65546;BME280;52177;55.968;37.498;2022-10-16T02:25:10;100978.81;;;0.71;76.63
65546;BME280;52177;55.968;37.498;2022-10-16T02:25:43;100977.88;;;0.72;76.49
65546;BME280;52177;55.968;37.498;2022-10-16T02:26:15;100977.03;;;0.71;76.49
65546;BME280;52177;55.968;37.498;2022-10-16T02:26:52;100982.19;;;0.73;76.48
65546;BME280;52177;55.968;37.498;2022-10-16T02:27:28;100977.78;;;0.73;76.37
65546;BME280;52177;55.968;37.498;2022-10-16T02:28:08;100981.25;;;0.74;76.54
65546;BME280;52177;55.968;37.498;2022-10-16T02:28:45;100976.94;;;0.73;76.32
65546;BME280;52177;55.968;37.498;2022-10-16T02:29:20;100985.66;;;0.73;76.40
65546;BME280;52177;55.968;37.498;2022-10-16T02:29:53;100976.09;;;0.72;76.47
65546;BME280;52177;55.968;37.498;2022-10-16T02:30:36;100981.34;;;0.72;76.33
65546;BME280;52177;55.968;37.498;2022-10-16T02:31:08;100981.34;;;0.72;76.37
65546;BME280;52177;55.968;37.498;2022-10-16T02:31:41;100981.34;;;0.72;76.39
65546;BME280;52177;55.968;37.498;2022-10-16T02:32:13;100980.50;;;0.72;76.24
65546;BME280;52177;55.968;37.498;2022-10-16T02:32:45;100985.75;;;0.72;76.22
65546;BME280;52177;55.968;37.498;2022-10-16T02:33:17;100985.75;;;0.72;76.24
65546;BME280;52177;55.968;37.498;2022-10-16T02:33:49;100983.97;;;0.72;76.14
65546;BME280;52177;55.968;37.498;2022-10-16T02:34:20;100982.19;;;0.73;76.06
65546;BME280;52177;55.968;37.498;2022-10-16T02:34:52;100985.66;;;0.73;76.05
65546;BME280;52177;55.968;37.498;2022-10-16T02:35:23;100983.13;;;0.72;75.89
65546;BME280;52177;55.968;37.498;2022-10-16T02:35:54;100983.13;;;0.72;76.12
65546;BME280;52177;55.968;37.498;2022-10-16T02:36:26;100984.81;;;0.73;76.10
65546;BME280;52177;55.968;37.498;2022-10-16T02:36:57;100984.91;;;0.71;76.04
65546;BME280;52177;55.968;37.498;2022-10-16T02:37:28;100988.44;;;0.70;76.48
65546;BME280;52177;55.968;37.498;2022-10-16T02:37:58;100990.22;;;0.70;76.46
65546;BME280;52177;55.968;37.498;2022-10-16T02:38:29;100990.31;;;0.68;76.65
65546;BME280;52177;55.968;37.498;2022-10-16T02:39:00;100995.63;;;0.67;76.68
65546;BME280;52177;55.968;37.498;2022-10-16T02:39:31;100992.16;;;0.66;76.79
65546;BME280;52177;55.968;37.498;2022-10-16T02:40:01;100991.41;;;0.64;76.87
65546;BME280;52177;55.968;37.498;2022-10-16T02:40:32;100990.56;;;0.63;76.86
65546;BME280;52177;55.968;37.498;2022-10-16T02:41:03;100987.94;;;0.63;76.83
65546;BME280;52177;55.968;37.498;2022-10-16T02:41:34;100990.56;;;0.63;76.84
65546;BME280;52177;55.968;37.498;2022-10-16T02:42:04;100982.59;;;0.65;76.79
65546;BME280;52177;55.968;37.498;2022-10-16T02:42:35;100986.94;;;0.66;76.91
65546;BME280;52177;55.968;37.498;2022-10-16T02:43:06;100987.75;;;0.67;76.91
65546;BME280;52177;55.968;37.498;2022-10-16T02:43:36;100981.69;;;0.66;76.90
65546;BME280;52177;55.968;37.498;2022-10-16T02:44:06;100989.56;;;0.66;76.80
65546;BME280;52177;55.968;37.498;2022-10-16T02:44:37;100986.09;;;0.66;76.86
65546;BME280;52177;55.968;37.498;2022-10-16T02:45:08;100986.09;;;0.66;76.73
65546;BME280;52177;55.968;37.498;2022-10-16T02:45:39;100987.84;;;0.65;76.79
65546;BME280;52177;55.968;37.498;2022-10-16T02:46:09;100988.78;;;0.64;76.62
65546;BME280;52177;55.968;37.498;2022-10-16T02:46:39;100984.38;;;0.65;76.58
65546;BME280;52177;55.968;37.498;2022-10-16T02:47:10;100988.78;;;0.64;76.74
65546;BME280;52177;55.968;37.498;2022-10-16T02:47:40;100994.94;;;0.63;76.75
65546;BME280;52177;55.968;37.498;2022-10-16T02:48:10;100994.94;;;0.63;76.78
65546;BME280;52177;55.968;37.498;2022-10-16T02:48:40;100991.47;;;0.62;76.79
65546;BME280;52177;55.968;37.498;2022-10-16T02:49:11;100992.41;;;0.61;76.80
65546;BME280;52177;55.968;37.498;2022-10-16T02:49:41;100996.81;;;0.61;76.85
65546;BME280;52177;55.968;37.498;2022-10-16T02:50:11;100990.69;;;0.60;76.86
65546;BME280;52177;55.968;37.498;2022-10-16T02:50:41;100994.19;;;0.61;76.86
65546;BME280;52177;55.968;37.498;2022-10-16T02:51:11;100990.69;;;0.60;76.77
65546;BME280;52177;55.968;37.498;2022-10-16T02:51:42;100992.41;;;0.61;76.76
65546;BME280;52177;55.968;37.498;2022-10-16T02:52:12;100998.50;;;0.62;76.65
65546;BME280;52177;55.968;37.498;2022-10-16T02:52:42;100993.25;;;0.62;76.56
65546;BME280;52177;55.968;37.498;2022-10-16T02:53:12;100993.31;;;0.60;76.60
65546;BME280;52177;55.968;37.498;2022-10-16T02:53:43;101001.19;;;0.60;76.66
65546;BME280;52177;55.968;37.498;2022-10-16T02:54:14;100992.56;;;0.58;76.63
65546;BME280;52177;55.968;37.498;2022-10-16T02:54:44;100995.19;;;0.58;76.71
65546;BME280;52177;55.968;37.498;2022-10-16T02:55:14;100993.50;;;0.57;76.70
65546;BME280;52177;55.968;37.498;2022-10-16T02:55:44;100994.44;;;0.56;76.79
65546;BME280;52177;55.968;37.498;2022-10-16T02:56:15;100989.19;;;0.56;76.59
65546;BME280;52177;55.968;37.498;2022-10-16T02:56:45;101001.44;;;0.56;76.86
65546;BME280;52177;55.968;37.498;2022-10-16T02:57:15;100994.50;;;0.55;76.73
65546;BME280;52177;55.968;37.498;2022-10-16T02:57:45;100997.13;;;0.55;76.84
65546;BME280;52177;55.968;37.498;2022-10-16T02:58:16;101000.59;;;0.55;76.66
65546;BME280;52177;55.968;37.498;2022-10-16T02:58:46;100999.75;;;0.55;76.72
65546;BME280;52177;55.968;37.498;2022-10-16T02:59:16;100998.91;;;0.54;76.82
65546;BME280;52177;55.968;37.498;2022-10-16T02:59:46;101000.66;;;0.54;76.61
65546;BME280;52177;55.968;37.498;2022-10-16T03:00:17;100997.97;;;0.55;76.79
65546;BME280;52177;55.968;37.498;2022-10-16T03:00:47;100998.91;;;0.54;76.70
65546;BME280;52177;55.968;37.498;2022-10-16T03:01:17;100997.13;;;0.55;76.63